Holloman Air Force Base
KHMN : now visible

Airfield :











YOU CAN JOIN US ON...

 
LOGIN :

Register | Disclaimer

   EN    FR    IT 

 









Legend :    VFR   Marginal VFR   IFR   Intensive IFR   Very Intensive IFR
Visi :
Ceiling :
>= 8 km
>= 3000ft
5 to 8 km
1000 to 3000 ft
1500m to 5 km
500 to 1000 ft
800 to 1500m
200 to 500 ft
< 800m
< 200 ft
Symbols :   Thunderstorms  Fog  Heavy snow  Heavy precipitations  Wind > 20 kt






- Airport Elevation : 4093 ft


KHMN - Holloman Air Force Base

CURRENT METAR :
  • 141858Z AUTO 26003KT 10SM CLR 37/07 A3007 RMK AO2 SLP097 T03740073 $

EXPIRED METARs :
  • 141758Z AUTO 00000KT 10SM CLR 36/06 A3009 RMK AO2 SLP104 T03610063 10364 20222 58007 $
  • 141658Z AUTO 18007KT 10SM CLR 35/07 A3011 RMK AO2 SLP112 T03530065 $

TAF TAF KHMN
Valid from the 14 at 17:00 until the 15 at 23:00 UTC


141700Z 1417/1523 VRB06KT 9999 FEW150 FEW200 QNH3008INS
BECMG 1418/1419 24009KT 9999 SCT150 SCT200 QNH3004INS TS OMTNS E
BECMG 1420/1421 23012G18KT 9999 SCT140 QNH2999INS TS OMTNS
TEMPO 1501/1505 27020G30KT 8000 -SHRA VCTS BKN140CB
BECMG 1504/1505 29012KT 9999 BKN140 QNH3003INS
BECMG 1512/1513 VRB06KT 9999 SCT150 QNH3009INS
BECMG 1518/1519 19009KT 9999 SCT150 SCT200 QNH3006INS TS OMTNS TX39/1422Z TN22/1512Z
KZAB FIR / North America



MET'MAP, your aeronautical weather chart ! - Copyright ORBIFLY December 2007 - Disclaimer

ORBIFLY MET'MAP TEAM :

Programming & Development : Alexandra Zaïnal
Concept & original design : Baudouin d'Aumeries
Assistance for programming : Marc-Olivier Méhu
Technical & hardware support : Manuel Goepfert

Contact : metmap@orbifly.com




SOURCES & CREDITS :

   NOAA       Earth
Advisory